Logo AVAMET
Benvolgut visitant, si us plau, ingressa Recuperar contrasenya
AVAMET paisatges

Torrevella Acequión

Dades diàries. Acumulats / Últims 30 dies disponibles

Data Temperatura (°C) Humitat rel. (%) Pressió rel. (hPa) Vent (km/h) Precipitació
Mínima Mitjana Màxima Amplitud
tèrmica
Mínima Mitjana Màxima Mínima Mitjana Màxima Predom. Mitjana Ràfega
màxima
Total
(mm)
Índex-n
Mínima Mitjana Màxima Mínima Mitjana Màxima n
0 a 1
P0 max
mm 5'
Dades mensuals acumulades fins l'últim dia disponible
03/2020 8,8 12,7 16,4 15,9 12,8 19,0 25,1 16,3 25 70 95 1.004 1.017 1.027   60,0 89,2
Dades anuals acumulades fins l'últim dia disponible
2020 6,6 11,3 16,4 14,7 12,1 18,1 26,1 19,5 25 73 96 1.004 1.022 1.035   4,8 68,0 164,2
Últims 30 dies disponibles
28-03-2020 9,6     13,0     16,4 6,8 53 72 90 1.015 1.017 1.019 29,0 1,6
27-03-2020 10,0     11,4     12,8 2,8 65 79 92 1.011 1.013 1.015 34,0 6,6
26-03-2020 8,8     14,2     19,6 10,8 38 66 94 1.006 1.011 1.015 37,0 0,8
25-03-2020 9,4     12,1     14,8 5,4 63 75 87 1.015 1.016 1.017 35,0 2,2
24-03-2020 13,1     14,1     15,0 1,9 78 87 95 1.012 1.014 1.016 52,0 54,2
23-03-2020 11,7     14,2     16,8 5,1 85 90 94 1.013 1.014 1.015 39,0 4,6
22-03-2020 10,1     12,9     15,7 5,6 73 84 94 1.010 1.012 1.014 16,0 8,8
21-03-2020 11,4     13,9     16,4 5,0 78 86 94 1.011 1.014 1.016 26,0 7,6
20-03-2020 14,2     15,0     15,8 1,6 72 78 83 1.014 1.017 1.019 39,0 0,0
19-03-2020 14,6     15,9     17,2 2,6 76 80 84 1.019 1.022 1.024 40,0 0,0
18-03-2020 14,9     16,4     17,8 2,9 69 77 85 1.022 1.024 1.026 44,0 0,0
17-03-2020 10,9     13,9     16,9 6,0 72 81 90 1.018 1.022 1.025 47,0 2,8
16-03-2020 11,3     14,3     17,3 6,0 67 78 89 1.011 1.015 1.018 29,0 0,0
15-03-2020 13,3     15,5     17,7 4,4 71 82 92 1.014 1.017 1.020 23,0 0,0
14-03-2020 13,4     16,1     18,9 5,5 69 79 88 1.019 1.020 1.021 27,0 0,0
13-03-2020 13,3     16,3     19,3 6,0 67 76 85 1.016 1.018 1.020 32,0 0,0
12-03-2020 13,2     18,1     23,0 9,8 45 68 91 1.016 1.019 1.022 15,0 0,0
11-03-2020 13,3     16,6     19,9 6,6 62 74 86 1.021 1.023 1.025 24,0 0,0
10-03-2020 12,9     15,2     17,5 4,6 41 65 89 1.022 1.025 1.027 32,0 0,0
09-03-2020 15,4     19,8     24,1 8,7 25 48 70 1.020 1.022 1.024 40,0 0,0
08-03-2020 11,1     16,6     22,2 11,1 32 56 80 1.021 1.023 1.025 34,0 0,0
07-03-2020 12,2     16,0     19,8 7,6 32 53 74 1.021 1.023 1.025 40,0 0,0
06-03-2020 14,2     16,3     18,4 4,2 28 43 58 1.014 1.018 1.022 52,0 0,0
05-03-2020 14,6     19,4     24,2 9,6 39 56 72 1.008 1.013 1.017 40,0 0,0
04-03-2020 16,4     19,9     23,4 7,0 49 68 87 1.017 1.019 1.020 27,0 0,0
03-03-2020 12,3     17,9     23,4 11,1 38 52 66 1.013 1.016 1.019 48,0 0,0
02-03-2020 15,1     20,1     25,1 10,0 27 51 75 1.004 1.011 1.017 60,0 0,0
01-03-2020 16,2     19,3     22,4 6,2 44 60 76 1.013 1.015 1.016 19,0 0,0
29-02-2020 11,2     15,6     20,0 8,8 53 72 90 1.012 1.016 1.019 24,0 0,0
28-02-2020 13,6     16,9     20,3 6,7 41 65 89 1.019 1.021 1.022 24,0 0,0
Últims 13 mesos disponibles
02/2020 8,4 11,8 15,2 15,3 15,3 18,9 26,1 17,7 55 75 89 1.016 1.026 1.033 40,0 2,8
01/2020 6,6 9,1 14,0 12,7 12,1 16,3 21,9 15,3 61 75 87 1.014 1.023 1.032 OSO 0,2 68,0 72,2
12/2019 7,8 11,5 16,5 14,4 13,2 18,2 23,7 15,9 47 74 89 1.005 1.019 1.032 OSO 6,7 59,5 99,4
11/2019 8,1 13,0 20,9 16,1 15,4 19,9 28,2 20,1 48 61 90 1.001 1.012 1.019 OSO 7,7 59,5 14,4
10/2019 11,8 17,7 23,3 20,9 16,7 24,6 31,0 19,2 52 74 90 1.009 1.016 1.022 OSO 5,3 43,5 46,8
09/2019 16,7 21,6 24,6 24,2 22,8 27,0 30,4 13,7 54 80 90 1.010 1.017 1.021 SO 7,0 49,9 166,0
08/2019 21,4 24,0 26,4 26,5 27,6 29,1 35,7 14,3 65 79 87 1.010 1.015 1.019 SSE 6,6 43,5 32,4
07/2019 22,4 24,1 26,0 26,5 26,6 29,6 35,8 13,4 54 75 85 1.006 1.013 1.019 S 7,2 53,1 0,6
06/2019 16,3 20,0 24,3 22,7 21,7 25,7 33,1 16,8 55 73 86 1.009 1.015 1.022 S 7,6 46,7 0,0
05/2019 13,4 16,6 19,8 19,4 18,3 22,3 28,7 15,3 49 74 84 1.006 1.015 1.025 S 7,2 46,7 2,4
04/2019 10,3 13,2 16,1 16,0 15,6 19,6 25,8 15,5 51 72 93 1.000 1.013 1.025 OSO 7,7 66,0 205,0
03/2019 7,9 11,0 14,0 14,6 14,2 18,3 25,7 17,8 54 71 89 1.011 1.022 1.030 S 6,5 48,3 27,2
02/2019 5,8 9,5 12,8 13,1 13,9 17,1 22,0 16,2 36 65 83 997 1.023 1.032 OSO 7,2 64,4 3,6
Tots els anys disponibles
2019 4,6 16,1 26,4 19,1 12,4 22,5 35,8 31,2 36 72 93 997 1.016 1.032 S 6,8 66,0 599,8
2018 4,4 16,0 27,9 19,1 12,0 22,4 33,9 29,5 42 69 90 994 1.016 1.033 OSO 1,4 66,0 386,0
2017 2,0 16,5 28,1 19,6 6,8 22,6 34,5 32,5 23 64 87 1.000 1.019 1.036 SSO 0,1 61,0 152,8
2016 5,3 16,7 26,0 19,5 13,4 22,2 36,6 31,3 20 62 86 998 1.018 1.042 66,0 200,3
2015 4,0 16,5 23,5 19,4 22,5 22,3 36,6 32,6 36 63 73 1.015 1.019 1.029 83,0 170,0
2014 5,0 16,4 26,0 19,1 11,6 21,8 33,4 28,4 16 48 85 993 1.016 1.032 69,0 198,2
2013 4,6 15,5 20,0 18,3 19,8 21,2 32,5 27,9 35 48 58 1.008 1.016 1.024 71,0 217,8
2012 1,3 15,4 23,0 18,3 20,5 21,1 33,3 32,0 47 60 67 1.014 1.017 1.021 60,0 305,2
2011 2,4 15,9 25,4 18,7 10,5 21,5 35,1 32,7 34 68 92 57,0 203,8
Temperatura (°C)
Humitat relativa (%)
Velocitat del vent i ràfega màxima (km/h)
Direcció del vent (°)
Pressió (hPa)
Precipitació (mm)
Nota sobre les dades: s'avisa a l'usuari de la provisionalitat i no oficialitat d'aquestes dades
Logo AVAMET blanc
Web allotjada a Sollutia
Llicència de Creative CommonsLa web d'AVAMET i els seus continguts estan subjectes a una llicència de
Reconeixement - No Comercial - Compartir igual
Últimes estacions:  Altea - Com. Regants (Soci), Almoines (Inforatge), Beniparrell (Inforatge), Albal (Inforatge), Almussafes - Parc Industrial (Inforatge), La Vilavella (Soci), la Serratella (soci) - - -